createdAt,value
2018-07-15T00:01:00.674Z,88.6
2018-07-15T00:02:07.879Z,86.5
2018-07-15T00:03:15.091Z,88.6
2018-07-15T00:04:22.352Z,83.3
2018-07-15T00:05:29.560Z,89.4
2018-07-15T00:06:36.766Z,88.8
2018-07-15T00:07:43.977Z,85.2
2018-07-15T00:08:51.192Z,86.3
2018-07-15T00:09:58.404Z,91
2018-07-15T00:11:05.610Z,90
2018-07-15T00:12:12.822Z,89.3
2018-07-15T00:13:20.032Z,90.9
2018-07-15T00:14:27.246Z,90.8
2018-07-15T00:15:34.457Z,91
2018-07-15T00:16:41.387Z,91.1
2018-07-15T00:17:48.600Z,90.9
2018-07-15T00:18:55.811Z,86.7
2018-07-15T00:20:03.040Z,91.5
2018-07-15T00:21:09.971Z,91.9
2018-07-15T00:22:16.904Z,92.3
2018-07-15T00:23:24.116Z,90.9
2018-07-15T00:24:31.330Z,90
2018-07-15T00:25:38.542Z,91.7
2018-07-15T00:26:45.481Z,87.9
2018-07-15T00:27:52.411Z,90.9
2018-07-15T00:28:59.619Z,91.8
2018-07-15T00:30:06.288Z,92
2018-07-15T00:31:13.500Z,94
2018-07-15T00:32:20.711Z,92.3
2018-07-15T00:33:27.919Z,93.9
2018-07-15T00:34:35.129Z,91.8
2018-07-15T00:35:42.343Z,92.2
2018-07-15T00:36:49.565Z,93.8
2018-07-15T00:37:56.777Z,92.9
2018-07-15T00:39:03.987Z,95.3
2018-07-15T00:40:11.212Z,96.1
2018-07-15T00:41:18.425Z,93.3
2018-07-15T00:42:25.637Z,95.3
2018-07-15T00:43:32.863Z,95
2018-07-15T00:44:40.080Z,95.4
2018-07-15T00:45:47.290Z,95.3
2018-07-15T00:46:54.498Z,95.6
2018-07-15T00:48:01.710Z,94.6
2018-07-15T00:49:08.919Z,95.8
2018-07-15T00:50:16.133Z,94.2
2018-07-15T00:51:23.348Z,97
2018-07-15T00:52:30.577Z,97.4
2018-07-15T00:53:37.789Z,97.3
2018-07-15T00:54:44.999Z,97.8
2018-07-15T00:55:52.214Z,96.5
2018-07-15T00:56:59.429Z,98.7
2018-07-15T00:58:06.644Z,98.7
2018-07-15T00:59:13.858Z,99.2
2018-07-15T01:00:21.068Z,99.2
2018-07-15T01:01:28.278Z,98.2
2018-07-15T01:02:35.494Z,96.9
2018-07-15T01:03:42.706Z,99.5
2018-07-15T01:04:49.916Z,99.7
2018-07-15T01:05:57.126Z,99.9
2018-07-15T01:07:04.335Z,98.6
2018-07-15T01:08:11.546Z,99.9
2018-07-15T01:09:18.758Z,99.1
2018-07-15T01:10:25.967Z,99.6
2018-07-15T01:11:33.171Z,99.9
2018-07-15T01:12:40.386Z,99.5
2018-07-15T01:13:47.593Z,99.9
2018-07-15T01:14:54.839Z,99.9
2018-07-15T01:16:02.059Z,99.9
2018-07-15T01:17:09.271Z,99.9
2018-07-15T01:18:16.476Z,99.9
2018-07-15T01:19:23.694Z,99.9
2018-07-15T01:20:30.901Z,99.9
2018-07-15T01:21:38.113Z,99.9
2018-07-15T01:22:45.327Z,99.9
2018-07-15T01:23:52.536Z,99.9
2018-07-15T01:24:59.757Z,99.9
2018-07-15T01:26:06.968Z,99.9
2018-07-15T01:27:14.178Z,99.9
2018-07-15T01:28:21.389Z,99.9
2018-07-15T01:29:28.599Z,99.9
2018-07-15T01:30:35.809Z,99.9
2018-07-15T01:31:43.039Z,99.9
2018-07-15T01:32:50.248Z,99.9
2018-07-15T01:33:57.479Z,99.9
2018-07-15T01:35:04.421Z,99.9
2018-07-15T01:36:11.634Z,99.9
2018-07-15T01:37:18.295Z,99.9
2018-07-15T01:38:25.527Z,99.9
2018-07-15T01:39:32.740Z,99.9
2018-07-15T01:40:39.946Z,99.9
2018-07-15T01:41:47.151Z,99.9
2018-07-15T01:42:54.099Z,99.9
2018-07-15T01:44:01.313Z,99.9
2018-07-15T01:45:08.526Z,99.9
2018-07-15T01:46:15.459Z,99.9
2018-07-15T01:47:22.670Z,99.9
2018-07-15T01:48:29.877Z,99.9
2018-07-15T01:49:37.091Z,99.9
2018-07-15T01:50:44.026Z,99.9
2018-07-15T01:51:50.959Z,99.9
2018-07-15T01:52:58.170Z,99.9
2018-07-15T01:54:05.383Z,99.9
2018-07-15T01:55:12.591Z,99.9
2018-07-15T01:56:19.808Z,99.9
2018-07-15T01:57:27.015Z,99.9
2018-07-15T01:58:34.225Z,99.9
2018-07-15T01:59:41.440Z,99.9
2018-07-15T02:00:48.383Z,99.9
2018-07-15T02:01:55.589Z,99.9
2018-07-15T02:03:02.797Z,99.9
2018-07-15T02:04:10.007Z,99.9
2018-07-15T02:05:16.946Z,99.9
2018-07-15T02:06:24.157Z,99.9
2018-07-15T02:07:31.366Z,99.9
2018-07-15T02:08:38.577Z,99.9
2018-07-15T02:09:45.787Z,99.9
2018-07-15T02:10:53.038Z,99.9
2018-07-15T02:12:00.251Z,99.9
2018-07-15T02:13:07.512Z,99.9
2018-07-15T02:14:14.720Z,99.9
2018-07-15T02:15:21.933Z,99.9
2018-07-15T02:16:29.145Z,99.9
2018-07-15T02:17:36.357Z,99.9
2018-07-15T02:18:43.561Z,99.9
2018-07-15T02:19:50.774Z,99.9
2018-07-15T02:20:57.991Z,99.9
2018-07-15T02:22:04.925Z,99.9
2018-07-15T02:23:11.580Z,99.9
2018-07-15T02:24:18.789Z,99.9
2018-07-15T02:25:26.003Z,99.9
2018-07-15T02:26:33.208Z,99.9
2018-07-15T02:27:40.414Z,99.9
2018-07-15T02:28:47.629Z,99.9
2018-07-15T02:29:54.834Z,99.9
2018-07-15T02:31:02.046Z,99.9
2018-07-15T02:32:09.316Z,99.9
2018-07-15T02:33:16.527Z,99.9
2018-07-15T02:34:23.737Z,99.9
2018-07-15T02:35:30.679Z,99.9
2018-07-15T02:36:37.941Z,99.9
2018-07-15T02:37:45.277Z,99.9
2018-07-15T02:38:52.489Z,99.9
2018-07-15T02:39:59.695Z,99.9
2018-07-15T02:41:06.925Z,99.9
2018-07-15T02:42:14.136Z,99.9
2018-07-15T02:43:21.367Z,99.9
2018-07-15T02:44:28.581Z,99.9
2018-07-15T02:45:35.784Z,99.9
2018-07-15T02:46:42.999Z,99.9
2018-07-15T02:47:50.210Z,99.9
2018-07-15T02:48:57.148Z,99.9
2018-07-15T02:50:04.361Z,99.9
2018-07-15T02:51:11.573Z,99.9
2018-07-15T02:52:18.780Z,99.9
2018-07-15T02:53:26.005Z,99.9
2018-07-15T02:54:33.220Z,99.9
2018-07-15T02:55:40.431Z,99.9
2018-07-15T02:56:47.643Z,99.9
2018-07-15T02:57:54.852Z,99.9
2018-07-15T02:59:01.796Z,99.9
2018-07-15T03:00:09.004Z,99.9
2018-07-15T03:01:16.222Z,99.9
2018-07-15T03:02:23.435Z,99.9
2018-07-15T03:03:30.655Z,99.9
2018-07-15T03:04:37.586Z,99.9
2018-07-15T03:05:44.795Z,99.9
2018-07-15T03:06:52.062Z,99.9
2018-07-15T03:07:59.306Z,99.9
2018-07-15T03:09:06.248Z,99.9
2018-07-15T03:10:13.458Z,99.9
2018-07-15T03:11:20.687Z,99.9
2018-07-15T03:12:27.899Z,99.9
2018-07-15T03:13:35.116Z,99.9
2018-07-15T03:14:42.057Z,99.9
2018-07-15T03:15:49.261Z,99.9
2018-07-15T03:16:56.478Z,99.9
2018-07-15T03:18:03.682Z,99.9
2018-07-15T03:19:10.892Z,99.9
2018-07-15T03:20:18.169Z,99.9
2018-07-15T03:21:25.377Z,99.9
2018-07-15T03:22:32.602Z,99.9
2018-07-15T03:23:39.826Z,99.9
2018-07-15T03:24:47.044Z,99.9
2018-07-15T03:25:54.246Z,99.9
2018-07-15T03:27:01.455Z,99.9
2018-07-15T03:28:08.669Z,99.9
2018-07-15T03:29:15.878Z,99.9
2018-07-15T03:30:23.092Z,99.9
2018-07-15T03:31:30.297Z,99.9
2018-07-15T03:32:37.513Z,99.9
2018-07-15T03:33:44.721Z,99.9
2018-07-15T03:34:51.933Z,99.9
2018-07-15T03:35:59.141Z,99.9
2018-07-15T03:37:06.356Z,99.9
2018-07-15T03:38:13.564Z,99.9
2018-07-15T03:39:20.770Z,99.9
2018-07-15T03:40:27.980Z,99.9
2018-07-15T03:41:35.191Z,99.9
2018-07-15T03:42:42.404Z,99.9
2018-07-15T03:43:49.621Z,99.9
2018-07-15T03:44:56.834Z,99.9
2018-07-15T03:46:04.047Z,99.9
2018-07-15T03:47:11.253Z,99.9
2018-07-15T03:48:18.473Z,99.9
2018-07-15T03:49:25.690Z,99.9
2018-07-15T03:50:32.891Z,99.9
2018-07-15T03:51:40.103Z,99.9
2018-07-15T03:52:47.317Z,99.9
2018-07-15T03:53:54.528Z,99.9
2018-07-15T03:55:01.743Z,99.9
2018-07-15T03:56:09.160Z,99.9
2018-07-15T03:57:16.374Z,99.9
2018-07-15T03:58:23.585Z,99.9
2018-07-15T03:59:30.519Z,99.9
2018-07-15T04:00:37.750Z,99.9
2018-07-15T04:01:45.050Z,99.9
2018-07-15T04:02:52.264Z,99.9
2018-07-15T04:03:59.478Z,99.9
2018-07-15T04:05:06.451Z,99.9
2018-07-15T04:06:13.666Z,99.9
2018-07-15T04:07:20.876Z,99.9
2018-07-15T04:08:28.151Z,99.9
2018-07-15T04:09:35.526Z,99.9
2018-07-15T04:10:42.737Z,99.9
2018-07-15T04:11:49.947Z,99.9
2018-07-15T04:12:57.155Z,99.9
2018-07-15T04:14:04.364Z,99.9
2018-07-15T04:15:11.579Z,99.9
2018-07-15T04:16:18.522Z,99.9
2018-07-15T04:17:25.732Z,99.9
2018-07-15T04:18:32.948Z,99.9
2018-07-15T04:19:40.165Z,99.9
2018-07-15T04:20:47.372Z,99.9
2018-07-15T04:21:54.581Z,99.9
2018-07-15T04:23:01.791Z,99.9
2018-07-15T04:24:08.723Z,99.9
2018-07-15T04:25:15.932Z,99.9
2018-07-15T04:26:23.140Z,99.9
2018-07-15T04:27:30.351Z,99.9
2018-07-15T04:28:37.560Z,99.9
2018-07-15T04:29:44.769Z,99.9
2018-07-15T04:30:51.695Z,99.9
2018-07-15T04:31:58.907Z,99.9
2018-07-15T04:33:06.123Z,99.9
2018-07-15T04:34:13.331Z,99.9
2018-07-15T04:35:20.540Z,99.9
2018-07-15T04:36:27.750Z,99.9
2018-07-15T04:37:34.979Z,99.9
2018-07-15T04:38:42.190Z,99.9
2018-07-15T04:39:49.398Z,99.9
2018-07-15T04:40:56.611Z,99.9
2018-07-15T04:42:03.826Z,99.9
2018-07-15T04:43:11.039Z,99.9
2018-07-15T04:44:18.247Z,99.9
2018-07-15T04:45:25.455Z,99.9
2018-07-15T04:46:32.669Z,99.9
2018-07-15T04:47:39.597Z,99.9
2018-07-15T04:48:46.536Z,99.9
2018-07-15T04:49:53.745Z,99.9
2018-07-15T04:52:22.823Z,99.9
2018-07-15T04:53:30.035Z,99.9
2018-07-15T04:54:37.244Z,99.9
2018-07-15T04:55:44.458Z,99.9
2018-07-15T04:56:51.667Z,99.9
2018-07-15T04:57:58.879Z,99.9
2018-07-15T04:59:06.089Z,99.9
2018-07-15T05:00:13.300Z,99.9
2018-07-15T05:02:27.426Z,99.9
2018-07-15T05:03:34.637Z,99.9
2018-07-15T05:04:41.849Z,99.9
2018-07-15T05:05:49.062Z,99.9
2018-07-15T05:06:56.272Z,99.9
2018-07-15T05:08:03.485Z,99.9
2018-07-15T05:09:10.420Z,99.9
2018-07-15T05:10:17.626Z,99.9
2018-07-15T05:11:24.967Z,99.9
2018-07-15T05:12:32.475Z,99.9
2018-07-15T05:13:39.686Z,99.9
2018-07-15T05:14:46.900Z,99.9
2018-07-15T05:15:54.119Z,99.9
2018-07-15T05:17:01.332Z,99.9
2018-07-15T05:18:08.543Z,99.9
2018-07-15T05:19:15.752Z,99.9
2018-07-15T05:20:22.974Z,99.9
2018-07-15T05:21:30.168Z,99.9
2018-07-15T05:22:37.375Z,99.9
2018-07-15T05:23:44.615Z,99.9
2018-07-15T05:24:51.607Z,99.9
2018-07-15T05:25:58.873Z,99.9
2018-07-15T05:27:06.085Z,99.9
2018-07-15T05:28:13.296Z,99.9
2018-07-15T05:29:20.508Z,99.9
2018-07-15T05:30:27.448Z,99.9
2018-07-15T05:31:34.662Z,99.9
2018-07-15T05:32:41.587Z,99.9
2018-07-15T05:33:48.796Z,99.9
2018-07-15T05:34:56.037Z,99.9
2018-07-15T05:36:03.205Z,99.9
2018-07-15T05:37:10.139Z,99.9
2018-07-15T05:38:17.350Z,99.9
2018-07-15T05:39:24.587Z,99.9
2018-07-15T05:40:31.517Z,99.9
2018-07-15T05:41:38.730Z,99.9
2018-07-15T05:42:45.947Z,99.9
2018-07-15T05:43:53.154Z,99.9
2018-07-15T05:45:00.361Z,99.9
2018-07-15T05:46:07.574Z,99.9
2018-07-15T05:47:14.784Z,99.9
2018-07-15T05:48:21.996Z,99.9
2018-07-15T05:49:29.210Z,99.9
2018-07-15T05:50:36.422Z,99.9
2018-07-15T05:51:43.643Z,99.9
2018-07-15T05:52:50.953Z,99.9
2018-07-15T05:53:57.900Z,99.9
2018-07-15T05:55:05.116Z,99.9
2018-07-15T05:56:12.329Z,99.9
2018-07-15T05:57:19.547Z,99.8
2018-07-15T05:58:26.759Z,99.5
2018-07-15T05:59:33.970Z,99.9
2018-07-15T06:00:40.911Z,96.9
2018-07-15T06:01:48.127Z,96.9
2018-07-15T06:02:55.342Z,97.5
2018-07-15T06:04:02.555Z,91.9
2018-07-15T06:05:09.779Z,91.6
2018-07-15T06:06:16.989Z,90.1
2018-07-15T06:07:24.200Z,86.8
2018-07-15T06:08:31.408Z,87.6
2018-07-15T06:09:38.628Z,81.8
2018-07-15T06:10:45.885Z,81.5
2018-07-15T06:11:53.486Z,86.3
2018-07-15T06:13:00.434Z,87.4
2018-07-15T06:14:07.638Z,77
2018-07-15T06:15:14.849Z,77.1
2018-07-15T06:16:22.063Z,68.8
2018-07-15T06:17:29.282Z,69.3
2018-07-15T06:18:36.495Z,61.8
2018-07-15T06:19:43.428Z,65.9
2018-07-15T06:20:50.693Z,56
2018-07-15T06:21:57.907Z,55.4
2018-07-15T06:23:05.125Z,57.8
2018-07-15T06:24:12.336Z,65.7
2018-07-15T06:25:19.547Z,57.6
2018-07-15T06:26:26.759Z,56.9
2018-07-15T06:27:33.964Z,58.3
2018-07-15T06:28:40.901Z,54.1
2018-07-15T06:29:47.837Z,53.3
2018-07-15T06:30:55.107Z,54.1
2018-07-15T06:32:02.385Z,55.6
2018-07-15T06:33:09.595Z,58.8
2018-07-15T06:34:16.815Z,48.2
2018-07-15T06:35:24.027Z,48.3
2018-07-15T06:36:31.249Z,45.4
2018-07-15T06:37:38.459Z,55.3
2018-07-15T06:38:45.673Z,43.8
2018-07-15T06:39:52.900Z,54.7
2018-07-15T06:41:00.115Z,50.5
2018-07-15T06:42:07.331Z,49.1
2018-07-15T06:43:14.546Z,48.9
2018-07-15T06:44:21.808Z,39.7
2018-07-15T06:45:29.033Z,43.8
2018-07-15T06:46:36.246Z,45.6
2018-07-15T06:47:43.460Z,46.9
2018-07-15T06:48:50.675Z,40.2
2018-07-15T06:49:57.887Z,38.9
2018-07-15T06:51:04.825Z,39.7
2018-07-15T06:52:12.040Z,43.6
2018-07-15T06:53:19.253Z,45.3
2018-07-15T06:54:26.468Z,40.7
2018-07-15T06:55:33.679Z,42.4
2018-07-15T06:56:40.896Z,31.6
2018-07-15T06:57:47.843Z,27.8
2018-07-15T06:58:55.049Z,33.4
2018-07-15T07:00:02.271Z,34.1
2018-07-15T07:01:09.489Z,34.2
2018-07-15T07:02:16.434Z,28.1
2018-07-15T07:03:23.649Z,26.1
2018-07-15T07:04:30.889Z,29.9
2018-07-15T07:05:37.825Z,30.7
2018-07-15T07:06:44.763Z,31.9
2018-07-15T07:07:51.976Z,26.5
2018-07-15T07:08:59.201Z,31.9
2018-07-15T07:10:06.416Z,25.8
2018-07-15T07:11:13.634Z,19.7
2018-07-15T07:12:20.852Z,29.1
2018-07-15T07:13:28.071Z,22.7
2018-07-15T07:14:35.291Z,23.9
2018-07-15T07:15:42.522Z,20.1
2018-07-15T07:16:49.734Z,20.5
2018-07-15T07:17:56.944Z,20.5
2018-07-15T07:19:04.164Z,20.8
2018-07-15T07:20:11.374Z,20.8
2018-07-15T07:21:18.590Z,21.6
2018-07-15T07:22:25.812Z,22.3
2018-07-15T07:23:32.749Z,25
2018-07-15T07:24:39.965Z,29.2
2018-07-15T07:25:47.185Z,22.5
2018-07-15T07:26:54.396Z,26.5
2018-07-15T07:28:01.617Z,29.3
2018-07-15T07:29:08.831Z,27.8
2018-07-15T07:30:16.044Z,23.4
2018-07-15T07:31:23.259Z,23.2
2018-07-15T07:32:30.478Z,15.2
2018-07-15T07:33:37.687Z,16.9
2018-07-15T07:34:44.631Z,17.3
2018-07-15T07:35:51.846Z,21.7
2018-07-15T07:36:59.059Z,22.9
2018-07-15T07:38:06.281Z,24.7
2018-07-15T07:39:13.226Z,26.3
2018-07-15T07:40:20.441Z,18.9
2018-07-15T07:41:27.414Z,23.3
2018-07-15T07:42:34.627Z,16.4
2018-07-15T07:43:41.852Z,16.5
2018-07-15T07:44:49.095Z,18.3
2018-07-15T07:45:56.034Z,16.2
2018-07-15T07:47:03.271Z,17
2018-07-15T07:48:10.896Z,18.8
2018-07-15T07:49:18.116Z,21.4
2018-07-15T07:50:25.332Z,15.3
2018-07-15T07:51:32.006Z,17.9
2018-07-15T07:52:39.248Z,15
2018-07-15T07:53:46.467Z,13.6
2018-07-15T07:54:53.680Z,10.7
2018-07-15T07:56:00.898Z,11.9
2018-07-15T07:57:08.115Z,10.4
2018-07-15T07:58:15.337Z,10.6
2018-07-15T07:59:22.553Z,11
2018-07-15T08:00:29.489Z,14.1
2018-07-15T08:01:36.702Z,10.7
2018-07-15T08:02:43.922Z,14.4
2018-07-15T08:03:51.157Z,10.8
2018-07-15T08:04:58.377Z,10.4
2018-07-15T08:06:05.633Z,7.2
2018-07-15T08:07:12.856Z,8.6
2018-07-15T08:08:20.076Z,14
2018-07-15T08:09:27.287Z,10.2
2018-07-15T08:10:34.499Z,16
2018-07-15T08:11:41.719Z,17.6
2018-07-15T08:12:48.950Z,8.3
2018-07-15T08:13:56.169Z,13
2018-07-15T08:15:03.104Z,11.9
2018-07-15T08:16:10.322Z,4
2018-07-15T08:17:17.536Z,3.9
2018-07-15T08:18:24.752Z,6.4
2018-07-15T08:19:31.696Z,7.9
2018-07-15T08:20:38.914Z,9.3
2018-07-15T08:21:46.130Z,7
2018-07-15T08:22:53.359Z,11.5
2018-07-15T08:24:00.566Z,7.3
2018-07-15T08:25:07.782Z,13
2018-07-15T08:26:15.000Z,13.9
2018-07-15T08:27:22.219Z,10.5
2018-07-15T08:28:29.615Z,14.9
2018-07-15T08:29:37.611Z,11.2
2018-07-15T08:30:44.552Z,6.2
2018-07-15T08:31:51.765Z,11.5
2018-07-15T08:32:58.706Z,5.8
2018-07-15T08:34:05.924Z,6.5
2018-07-15T08:35:13.144Z,5.5
2018-07-15T08:36:20.361Z,10.4
2018-07-15T08:37:27.585Z,11.5
2018-07-15T08:38:34.811Z,8.7
2018-07-15T08:39:42.030Z,10
2018-07-15T08:40:49.311Z,12.4
2018-07-15T08:41:56.702Z,14.5
2018-07-15T08:43:03.920Z,15.7
2018-07-15T08:44:11.142Z,10.1
2018-07-15T08:45:18.359Z,12
2018-07-15T08:46:25.582Z,6.7
2018-07-15T08:47:32.805Z,7.3
2018-07-15T08:48:40.025Z,6.6
2018-07-15T08:49:47.281Z,4.7
2018-07-15T08:50:54.504Z,4.2
2018-07-15T08:52:01.721Z,8.4
2018-07-15T08:53:08.676Z,4.1
2018-07-15T08:54:15.884Z,8.2
2018-07-15T08:55:23.105Z,1.1
2018-07-15T08:56:30.360Z,5.5
2018-07-15T08:57:37.576Z,4.2
2018-07-15T08:58:44.792Z,1.7
2018-07-15T08:59:52.013Z,3.5
2018-07-15T09:00:58.951Z,7.6
2018-07-15T09:02:06.197Z,4.7
2018-07-15T09:03:13.478Z,3.3
2018-07-15T09:04:20.896Z,3
2018-07-15T09:05:28.113Z,1.7
2018-07-15T09:06:35.537Z,1
2018-07-15T09:07:42.757Z,4.2
2018-07-15T09:08:49.975Z,5.6
2018-07-15T09:09:56.923Z,3.9
2018-07-15T09:11:04.143Z,1
2018-07-15T09:12:11.359Z,2.3
2018-07-15T09:13:18.577Z,1
2018-07-15T09:14:25.794Z,3.5
2018-07-15T09:15:33.011Z,1
2018-07-15T09:16:40.236Z,1.5
2018-07-15T09:17:47.452Z,1
2018-07-15T09:18:54.112Z,1
2018-07-15T09:20:01.342Z,3.4
2018-07-15T09:21:08.553Z,1.3
2018-07-15T09:22:15.771Z,1
2018-07-15T09:23:22.999Z,1
2018-07-15T09:24:30.210Z,1.2
2018-07-15T09:25:39.048Z,3.4
2018-07-15T09:26:47.237Z,1
2018-07-15T09:27:54.545Z,1
2018-07-15T09:29:02.014Z,1
2018-07-15T09:30:09.227Z,1.4
2018-07-15T09:31:16.441Z,1.1
2018-07-15T09:32:23.658Z,5
2018-07-15T09:33:30.872Z,3.1
2018-07-15T09:34:38.090Z,4.3
2018-07-15T09:35:45.311Z,1
2018-07-15T09:36:52.528Z,4.1
2018-07-15T09:37:59.747Z,2.1
2018-07-15T09:39:06.969Z,5.3
2018-07-15T09:40:13.914Z,1.7
2018-07-15T09:41:21.134Z,1
2018-07-15T09:42:28.358Z,1
2018-07-15T09:43:35.305Z,1
2018-07-15T09:44:42.523Z,1
2018-07-15T09:45:49.744Z,1
2018-07-15T09:46:56.680Z,1
2018-07-15T09:48:03.909Z,1
2018-07-15T09:49:11.129Z,1
2018-07-15T09:50:18.348Z,1
2018-07-15T09:51:25.570Z,1
2018-07-15T09:52:32.787Z,1
2018-07-15T09:53:40.007Z,1
2018-07-15T09:54:47.231Z,1
2018-07-15T09:55:54.187Z,1
2018-07-15T09:57:01.407Z,1.8
2018-07-15T09:58:08.622Z,1
2018-07-15T09:59:15.908Z,1
2018-07-15T10:00:23.129Z,1
2018-07-15T10:01:30.344Z,1
2018-07-15T10:02:37.562Z,1
2018-07-15T10:03:44.787Z,1
2018-07-15T10:04:52.004Z,1.9
2018-07-15T10:05:58.949Z,1
2018-07-15T10:07:06.168Z,1
2018-07-15T10:08:13.388Z,1
2018-07-15T10:09:20.382Z,1
2018-07-15T10:10:27.644Z,1
2018-07-15T10:11:35.071Z,1
2018-07-15T10:12:42.296Z,1
2018-07-15T10:13:49.510Z,1
2018-07-15T10:14:56.733Z,1
2018-07-15T10:16:03.948Z,1
2018-07-15T10:17:10.681Z,1
2018-07-15T10:18:17.897Z,1
2018-07-15T10:19:25.119Z,1
2018-07-15T10:20:32.338Z,1
2018-07-15T10:21:39.559Z,1
2018-07-15T10:22:46.777Z,1
2018-07-15T10:23:53.723Z,1
2018-07-15T10:25:00.945Z,1
2018-07-15T10:26:08.165Z,1
2018-07-15T10:27:15.111Z,1
2018-07-15T10:28:22.329Z,1
2018-07-15T10:29:29.549Z,1
2018-07-15T10:30:36.771Z,1
2018-07-15T10:31:43.988Z,1
2018-07-15T10:32:51.208Z,1
2018-07-15T10:33:58.430Z,1
2018-07-15T10:35:05.659Z,1
2018-07-15T10:36:12.608Z,1
2018-07-15T10:37:19.827Z,1
2018-07-15T10:38:26.971Z,1
2018-07-15T10:39:34.197Z,1
2018-07-15T10:40:41.408Z,1
2018-07-15T10:41:48.641Z,1
2018-07-15T10:42:55.848Z,1
2018-07-15T10:44:02.795Z,1
2018-07-15T10:45:10.015Z,1
2018-07-15T10:46:16.975Z,1
2018-07-15T10:47:24.195Z,1
2018-07-15T10:48:31.459Z,1
2018-07-15T10:49:38.691Z,1
2018-07-15T10:50:45.912Z,1
2018-07-15T10:51:53.128Z,1
2018-07-15T10:53:00.417Z,1
2018-07-15T10:54:08.097Z,1
2018-07-15T10:55:15.051Z,1
2018-07-15T10:56:22.275Z,1
2018-07-15T10:57:29.493Z,1
2018-07-15T10:58:36.442Z,1
2018-07-15T10:59:43.387Z,1
2018-07-15T11:00:50.687Z,1
2018-07-15T11:01:57.642Z,1
2018-07-15T11:03:04.910Z,1
2018-07-15T11:04:12.143Z,1
2018-07-15T11:05:19.366Z,1
2018-07-15T11:06:26.143Z,1
2018-07-15T11:07:33.911Z,1
2018-07-15T11:08:41.138Z,1
2018-07-15T11:09:48.358Z,1
2018-07-15T11:10:55.582Z,1
2018-07-15T11:12:02.804Z,1
2018-07-15T11:13:10.225Z,1
2018-07-15T11:14:17.460Z,1
2018-07-15T11:15:24.683Z,1
2018-07-15T11:16:31.962Z,1
2018-07-15T11:17:39.434Z,1
2018-07-15T11:18:46.667Z,1
2018-07-15T11:19:53.611Z,1
2018-07-15T11:21:00.835Z,1
2018-07-15T11:22:08.055Z,1
2018-07-15T11:23:15.280Z,1
2018-07-15T11:24:22.502Z,1
2018-07-15T11:25:29.727Z,1
2018-07-15T11:26:36.946Z,1
2018-07-15T11:27:44.177Z,1
2018-07-15T11:28:52.158Z,1
2018-07-15T11:29:59.373Z,1
2018-07-15T11:31:06.754Z,1
2018-07-15T11:32:15.051Z,1
2018-07-15T11:33:22.273Z,1
2018-07-15T11:34:29.489Z,1
2018-07-15T11:35:36.433Z,1
2018-07-15T11:36:43.380Z,1
2018-07-15T11:37:50.598Z,1
2018-07-15T11:38:57.858Z,1
2018-07-15T11:40:04.913Z,1
2018-07-15T11:41:12.129Z,1
2018-07-15T11:42:19.350Z,1
2018-07-15T11:43:26.314Z,1
2018-07-15T11:44:33.522Z,1
2018-07-15T11:45:40.742Z,1
2018-07-15T11:46:47.965Z,1
2018-07-15T11:47:55.187Z,1
2018-07-15T11:49:02.407Z,1
2018-07-15T11:50:09.363Z,1
2018-07-15T11:51:16.312Z,1
2018-07-15T11:52:23.533Z,1
2018-07-15T11:53:30.758Z,1
2018-07-15T11:54:37.996Z,1
2018-07-15T11:55:45.813Z,1
2018-07-15T11:56:53.032Z,1
2018-07-15T11:58:00.256Z,1
2018-07-15T11:59:07.518Z,1
2018-07-15T12:00:14.744Z,1
2018-07-15T12:01:21.964Z,1
2018-07-15T12:02:29.192Z,1
2018-07-15T12:03:36.409Z,1
2018-07-15T12:04:43.349Z,1
2018-07-15T12:05:50.567Z,1
2018-07-15T12:06:57.509Z,1
2018-07-15T12:08:04.727Z,1
2018-07-15T12:09:11.674Z,1
2018-07-15T12:10:18.892Z,1
2018-07-15T12:11:26.110Z,1
2018-07-15T12:12:33.349Z,1
2018-07-15T12:13:40.301Z,1
2018-07-15T12:14:47.518Z,1
2018-07-15T12:15:54.735Z,1
2018-07-15T12:17:01.956Z,1
2018-07-15T12:18:09.210Z,1
2018-07-15T12:19:16.426Z,1
2018-07-15T12:20:23.675Z,1
2018-07-15T12:21:31.014Z,1
2018-07-15T12:22:38.236Z,1
2018-07-15T12:23:45.460Z,1
2018-07-15T12:24:52.680Z,1
2018-07-15T12:25:59.904Z,1
2018-07-15T12:27:07.121Z,1
2018-07-15T12:28:14.398Z,1
2018-07-15T12:29:21.811Z,1
2018-07-15T12:30:29.032Z,1
2018-07-15T12:31:36.261Z,1
2018-07-15T12:32:43.480Z,1
2018-07-15T12:33:50.705Z,1
2018-07-15T12:34:57.922Z,1
2018-07-15T12:36:05.144Z,1
2018-07-15T12:37:12.360Z,1
2018-07-15T12:38:19.578Z,1
2018-07-15T12:39:26.813Z,1
2018-07-15T12:40:34.022Z,1
2018-07-15T12:41:41.241Z,1
2018-07-15T12:42:48.460Z,1
2018-07-15T12:43:55.679Z,1
2018-07-15T12:45:02.902Z,1
2018-07-15T12:46:10.117Z,1
2018-07-15T12:47:17.335Z,1
2018-07-15T12:48:24.556Z,1
2018-07-15T12:49:31.778Z,1
2018-07-15T12:50:38.995Z,1
2018-07-15T12:51:46.210Z,1
2018-07-15T12:52:53.431Z,1
2018-07-15T12:54:00.647Z,1
2018-07-15T12:55:07.874Z,1
2018-07-15T12:56:15.089Z,1
2018-07-15T12:57:22.305Z,1
2018-07-15T12:58:29.518Z,1
2018-07-15T12:59:36.746Z,1
2018-07-15T13:00:43.968Z,1
2018-07-15T13:01:51.186Z,1
2018-07-15T13:02:58.405Z,1
2018-07-15T13:04:05.627Z,1
2018-07-15T13:05:12.843Z,1
2018-07-15T13:06:20.061Z,1
2018-07-15T13:07:27.279Z,1
2018-07-15T13:08:34.582Z,1
2018-07-15T13:09:41.810Z,1
2018-07-15T13:10:49.025Z,1
2018-07-15T13:11:56.289Z,1
2018-07-15T13:13:03.508Z,1
2018-07-15T13:14:10.735Z,1
2018-07-15T13:15:17.951Z,1
2018-07-15T13:16:25.324Z,1
2018-07-15T13:17:32.958Z,1
2018-07-15T13:18:39.911Z,1
2018-07-15T13:19:47.127Z,1
2018-07-15T13:20:54.345Z,1
2018-07-15T13:22:01.572Z,1
2018-07-15T13:23:08.795Z,1
2018-07-15T13:24:15.730Z,1
2018-07-15T13:25:22.950Z,1
2018-07-15T13:26:30.169Z,1
2018-07-15T13:27:37.394Z,1
2018-07-15T13:28:44.657Z,1
2018-07-15T13:29:51.882Z,1
2018-07-15T13:30:59.111Z,1
2018-07-15T13:32:06.324Z,1
2018-07-15T13:33:13.557Z,1
2018-07-15T13:34:20.780Z,1
2018-07-15T13:35:27.995Z,1
2018-07-15T13:36:35.246Z,1
2018-07-15T13:37:42.470Z,1
2018-07-15T13:38:49.689Z,1
2018-07-15T13:39:56.912Z,1
2018-07-15T13:41:04.335Z,1
2018-07-15T13:42:11.559Z,1
2018-07-15T13:43:18.778Z,1
2018-07-15T13:44:25.997Z,1
2018-07-15T13:45:33.224Z,1
2018-07-15T13:46:40.444Z,1
2018-07-15T13:47:47.392Z,1
2018-07-15T13:48:54.643Z,1
2018-07-15T13:50:01.859Z,1
2018-07-15T13:51:09.126Z,1
2018-07-15T13:52:16.509Z,1
2018-07-15T13:53:23.727Z,1
2018-07-15T13:54:30.945Z,1
2018-07-15T13:55:38.169Z,1
2018-07-15T13:56:45.403Z,1
2018-07-15T13:57:52.351Z,1
2018-07-15T13:58:59.566Z,1
2018-07-15T14:00:06.787Z,1
2018-07-15T14:01:14.012Z,2.3
2018-07-15T14:02:21.230Z,1
2018-07-15T14:03:28.449Z,1.4
2018-07-15T14:04:35.672Z,2.1
2018-07-15T14:05:42.884Z,1
2018-07-15T14:06:50.112Z,1
2018-07-15T14:07:57.334Z,1
2018-07-15T14:09:04.550Z,1
2018-07-15T14:10:11.767Z,1
2018-07-15T14:11:18.996Z,1
2018-07-15T14:12:26.217Z,1
2018-07-15T14:13:33.439Z,1
2018-07-15T14:14:40.660Z,2.1
2018-07-15T14:15:47.885Z,4
2018-07-15T14:16:55.100Z,4.4
2018-07-15T14:18:02.043Z,1
2018-07-15T14:19:09.266Z,1
2018-07-15T14:20:16.480Z,1
2018-07-15T14:21:23.717Z,1
2018-07-15T14:22:31.147Z,1
2018-07-15T14:23:38.399Z,1
2018-07-15T14:24:45.615Z,1
2018-07-15T14:25:52.831Z,1
2018-07-15T14:26:59.782Z,1
2018-07-15T14:28:07.002Z,1
2018-07-15T14:29:14.221Z,1
2018-07-15T14:30:21.436Z,1
2018-07-15T14:31:28.656Z,1
2018-07-15T14:32:35.878Z,1
2018-07-15T14:33:43.094Z,1
2018-07-15T14:34:50.314Z,1
2018-07-15T14:35:57.263Z,1
2018-07-15T14:37:04.474Z,1
2018-07-15T14:38:11.694Z,1
2018-07-15T14:39:18.911Z,1
2018-07-15T14:40:26.134Z,1
2018-07-15T14:41:33.355Z,1
2018-07-15T14:42:40.572Z,1
2018-07-15T14:43:47.788Z,1
2018-07-15T14:44:55.007Z,1
2018-07-15T14:46:02.222Z,1
2018-07-15T14:47:09.439Z,1
2018-07-15T14:48:16.659Z,1
2018-07-15T14:49:23.878Z,1
2018-07-15T14:50:31.126Z,1
2018-07-15T14:51:38.342Z,1
2018-07-15T14:52:45.567Z,1
2018-07-15T14:53:52.791Z,1
2018-07-15T14:55:00.011Z,1
2018-07-15T14:56:07.277Z,1
2018-07-15T14:57:14.780Z,1
2018-07-15T14:58:22.000Z,1
2018-07-15T14:59:29.215Z,1
2018-07-15T15:00:36.433Z,1
2018-07-15T15:01:43.654Z,1
2018-07-15T15:02:50.879Z,1
2018-07-15T15:03:57.821Z,1
2018-07-15T15:05:05.044Z,1
2018-07-15T15:06:12.270Z,1
2018-07-15T15:07:19.490Z,1
2018-07-15T15:08:26.434Z,1
2018-07-15T15:09:33.652Z,1
2018-07-15T15:10:40.873Z,1
2018-07-15T15:11:48.106Z,1
2018-07-15T15:12:55.323Z,1
2018-07-15T15:14:02.541Z,1
2018-07-15T15:15:09.773Z,1
2018-07-15T15:16:16.727Z,1
2018-07-15T15:17:23.952Z,1
2018-07-15T15:18:31.180Z,1
2018-07-15T15:19:38.404Z,1
2018-07-15T15:20:45.627Z,1
2018-07-15T15:21:52.846Z,1
2018-07-15T15:23:00.067Z,1
2018-07-15T15:24:07.291Z,1
2018-07-15T15:25:14.507Z,1
2018-07-15T15:26:21.731Z,1
2018-07-15T15:27:28.676Z,1
2018-07-15T15:28:35.899Z,1
2018-07-15T15:29:43.115Z,1
2018-07-15T15:30:50.336Z,1
2018-07-15T15:31:57.558Z,1
2018-07-15T15:34:11.433Z,1
2018-07-15T15:35:18.652Z,1
2018-07-15T15:36:25.875Z,1
2018-07-15T15:37:33.090Z,1
2018-07-15T15:38:40.326Z,1